Terminal Aerodrome Forecast
Issued by NWS

Home | Current Version | Previous Version | Text Only | Print | Product List | Glossary On
Versions: 1 2 3 4 5 6 7 8 9 10 11 12 13 14 15 16
569
FTUS43 KIND 291120
TAFHUF
TAF
KHUF 291120Z 2912/3012 07007KT P6SM BKN025
     FM291500 09010KT P6SM BKN035
     FM291800 09010KT P6SM BKN070=

USA.gov is the U.S. government's official web portal to all federal, state and local government web resources and services.